Airfield :
LOGIN :

Register | Disclaimer

   EN    FR    IT 

 










Legend :    VFR   Marginal VFR   IFR   Intensive IFR   Very Intensive IFR
Visi :
Ceiling :
>= 8 km
>= 3000ft
5 to 8 km
1000 to 3000 ft
1500m to 5 km
500 to 1000 ft
800 to 1500m
200 to 500 ft
< 800m
< 200 ft
Symbols :   Thunderstorms  Fog  Heavy snow  Heavy precipitations  Wind > 20 kt
SIGMETs :     Misc.  Thunderstorms  Icing  Turbulence  Mountain Waves  Volcanic Ashes







- Airport Elevation : 29 ft


LIRM - Grazzanise Caserta

CURRENT METAR :
  • 252055Z 18005KT 6000 SCT080 12/09 Q1019

EXPIRED METARs :
  • 251955Z 16005KT 6000 NSC 14/11 Q1019
  • 251855Z 24004KT 6000 SCT030 14/12 Q1019

TAF TAF LIRM
Valid from the 25 at 21:00 until the 26 at 06:00 UTC


252000Z 2521/2606 VRB03KT 7000 SCT028
TEMPO 2521/2602 4000 RA BR BKN020
No reported NOTAMs for that airfield.



MET'MAP, your aeronautical weather chart ! - Copyright ORBIFLY December 2007 - Disclaimer

ORBIFLY MET'MAP TEAM :

Programming & Development : Alexandra Zaïnal
Concept & Development : Baudouin d'Aumeries
Co-Development & Prog : Marc-Olivier Méhu
Technical & hardware support : Manuel Goepfert

Contact : metmap@orbifly.com




SOURCES & CREDITS :

   NOAA